sensor_id;sensor_type;location;lat;lon;timestamp;temperature;humidity
78708;SHT31;68037;51.978;5.650;2023-04-15T00:01:53;14.7;42.7
78708;SHT31;68037;51.978;5.650;2023-04-15T00:04:23;14.7;42.8
78708;SHT31;68037;51.978;5.650;2023-04-15T00:06:52;14.7;42.8
78708;SHT31;68037;51.978;5.650;2023-04-15T00:09:22;14.6;43.0
78708;SHT31;68037;51.978;5.650;2023-04-15T00:11:51;14.5;43.4
78708;SHT31;68037;51.978;5.650;2023-04-15T00:14:21;14.5;43.4
78708;SHT31;68037;51.978;5.650;2023-04-15T00:16:50;14.4;43.6
78708;SHT31;68037;51.978;5.650;2023-04-15T00:19:22;14.3;43.8
78708;SHT31;68037;51.978;5.650;2023-04-15T00:21:52;14.3;44.3
78708;SHT31;68037;51.978;5.650;2023-04-15T00:24:22;14.2;44.3
78708;SHT31;68037;51.978;5.650;2023-04-15T00:26:51;14.2;44.3
78708;SHT31;68037;51.978;5.650;2023-04-15T00:29:21;14.1;44.4
78708;SHT31;68037;51.978;5.650;2023-04-15T00:31:51;14.1;44.7
78708;SHT31;68037;51.978;5.650;2023-04-15T00:34:20;14.0;44.9
78708;SHT31;68037;51.978;5.650;2023-04-15T00:36:50;14.0;45.1
78708;SHT31;68037;51.978;5.650;2023-04-15T00:39:21;13.9;45.2
78708;SHT31;68037;51.978;5.650;2023-04-15T00:41:50;13.9;45.3
78708;SHT31;68037;51.978;5.650;2023-04-15T00:44:20;13.8;45.3
78708;SHT31;68037;51.978;5.650;2023-04-15T00:46:51;13.8;45.7
78708;SHT31;68037;51.978;5.650;2023-04-15T00:49:20;13.7;45.9
78708;SHT31;68037;51.978;5.650;2023-04-15T00:51:54;13.7;46.2
78708;SHT31;68037;51.978;5.650;2023-04-15T00:54:24;13.6;46.2
78708;SHT31;68037;51.978;5.650;2023-04-15T00:56:53;13.6;46.5
78708;SHT31;68037;51.978;5.650;2023-04-15T00:59:26;13.6;46.5
78708;SHT31;68037;51.978;5.650;2023-04-15T01:01:56;13.6;47.1
78708;SHT31;68037;51.978;5.650;2023-04-15T01:04:26;13.6;46.8
78708;SHT31;68037;51.978;5.650;2023-04-15T01:06:55;13.6;46.7
78708;SHT31;68037;51.978;5.650;2023-04-15T01:09:25;13.5;46.5
78708;SHT31;68037;51.978;5.650;2023-04-15T01:11:55;13.5;46.5
78708;SHT31;68037;51.978;5.650;2023-04-15T01:14:25;13.5;47.0
78708;SHT31;68037;51.978;5.650;2023-04-15T01:16:56;13.4;46.6
78708;SHT31;68037;51.978;5.650;2023-04-15T01:19:26;13.4;46.7
78708;SHT31;68037;51.978;5.650;2023-04-15T01:21:55;13.4;47.1
78708;SHT31;68037;51.978;5.650;2023-04-15T01:24:26;13.3;47.1
78708;SHT31;68037;51.978;5.650;2023-04-15T01:26:56;13.3;47.3
78708;SHT31;68037;51.978;5.650;2023-04-15T01:29:26;13.2;47.3
78708;SHT31;68037;51.978;5.650;2023-04-15T01:31:56;13.2;47.3
78708;SHT31;68037;51.978;5.650;2023-04-15T01:34:26;13.2;47.8
78708;SHT31;68037;51.978;5.650;2023-04-15T01:36:56;13.1;47.6
78708;SHT31;68037;51.978;5.650;2023-04-15T01:39:25;13.1;47.7
78708;SHT31;68037;51.978;5.650;2023-04-15T01:41:55;13.0;47.6
78708;SHT31;68037;51.978;5.650;2023-04-15T01:44:25;13.0;47.8
78708;SHT31;68037;51.978;5.650;2023-04-15T01:46:55;12.9;48.4
78708;SHT31;68037;51.978;5.650;2023-04-15T01:49:26;12.9;48.3
78708;SHT31;68037;51.978;5.650;2023-04-15T01:51:55;12.9;48.2
78708;SHT31;68037;51.978;5.650;2023-04-15T01:54:25;12.8;48.2
78708;SHT31;68037;51.978;5.650;2023-04-15T01:56:55;12.8;48.3
78708;SHT31;68037;51.978;5.650;2023-04-15T01:59:25;12.8;48.4
78708;SHT31;68037;51.978;5.650;2023-04-15T02:01:54;12.7;48.6
78708;SHT31;68037;51.978;5.650;2023-04-15T02:04:24;12.7;48.7
78708;SHT31;68037;51.978;5.650;2023-04-15T02:06:54;12.7;49.2
78708;SHT31;68037;51.978;5.650;2023-04-15T02:09:24;12.6;49.3
78708;SHT31;68037;51.978;5.650;2023-04-15T02:11:55;12.6;49.5
78708;SHT31;68037;51.978;5.650;2023-04-15T02:14:25;12.6;49.1
78708;SHT31;68037;51.978;5.650;2023-04-15T02:16:55;12.5;49.6
78708;SHT31;68037;51.978;5.650;2023-04-15T02:19:24;12.5;50.0
78708;SHT31;68037;51.978;5.650;2023-04-15T02:21:54;12.5;49.6
78708;SHT31;68037;51.978;5.650;2023-04-15T02:24:24;12.5;49.8
78708;SHT31;68037;51.978;5.650;2023-04-15T02:26:53;12.5;49.6
78708;SHT31;68037;51.978;5.650;2023-04-15T02:29:23;12.5;49.6
78708;SHT31;68037;51.978;5.650;2023-04-15T02:31:52;12.5;49.7
78708;SHT31;68037;51.978;5.650;2023-04-15T02:34:23;12.5;49.7
78708;SHT31;68037;51.978;5.650;2023-04-15T02:36:53;12.5;49.6
78708;SHT31;68037;51.978;5.650;2023-04-15T02:39:25;12.5;49.9
78708;SHT31;68037;51.978;5.650;2023-04-15T02:41:55;12.5;49.6
78708;SHT31;68037;51.978;5.650;2023-04-15T02:44:26;12.5;50.1
78708;SHT31;68037;51.978;5.650;2023-04-15T02:46:57;12.6;49.6
78708;SHT31;68037;51.978;5.650;2023-04-15T02:49:27;12.6;49.7
78708;SHT31;68037;51.978;5.650;2023-04-15T02:51:57;12.5;49.8
78708;SHT31;68037;51.978;5.650;2023-04-15T02:54:28;12.5;50.0
78708;SHT31;68037;51.978;5.650;2023-04-15T02:56:59;12.5;49.8
78708;SHT31;68037;51.978;5.650;2023-04-15T02:59:32;12.5;49.8
78708;SHT31;68037;51.978;5.650;2023-04-15T03:02:01;12.5;49.8
78708;SHT31;68037;51.978;5.650;2023-04-15T03:04:33;12.4;50.1
78708;SHT31;68037;51.978;5.650;2023-04-15T03:07:03;12.4;50.3
78708;SHT31;68037;51.978;5.650;2023-04-15T03:09:33;12.4;50.0
78708;SHT31;68037;51.978;5.650;2023-04-15T03:12:02;12.4;50.3
78708;SHT31;68037;51.978;5.650;2023-04-15T03:14:32;12.4;50.4
78708;SHT31;68037;51.978;5.650;2023-04-15T03:17:03;12.3;50.5
78708;SHT31;68037;51.978;5.650;2023-04-15T03:19:32;12.3;50.9
78708;SHT31;68037;51.978;5.650;2023-04-15T03:22:02;12.3;50.8
78708;SHT31;68037;51.978;5.650;2023-04-15T03:24:31;12.2;50.8
78708;SHT31;68037;51.978;5.650;2023-04-15T03:27:01;12.2;51.1
78708;SHT31;68037;51.978;5.650;2023-04-15T03:29:33;12.2;51.3
78708;SHT31;68037;51.978;5.650;2023-04-15T03:32:02;12.1;51.1
78708;SHT31;68037;51.978;5.650;2023-04-15T03:34:32;12.1;51.3
78708;SHT31;68037;51.978;5.650;2023-04-15T03:37:01;12.1;51.5
78708;SHT31;68037;51.978;5.650;2023-04-15T03:39:31;12.0;51.8
78708;SHT31;68037;51.978;5.650;2023-04-15T03:42:02;12.0;52.2
78708;SHT31;68037;51.978;5.650;2023-04-15T03:44:31;11.9;52.2
78708;SHT31;68037;51.978;5.650;2023-04-15T03:47:04;11.9;52.4
78708;SHT31;68037;51.978;5.650;2023-04-15T03:49:34;11.8;52.8
78708;SHT31;68037;51.978;5.650;2023-04-15T03:52:04;11.8;52.7
78708;SHT31;68037;51.978;5.650;2023-04-15T03:54:33;11.7;53.0
78708;SHT31;68037;51.978;5.650;2023-04-15T03:57:03;11.7;52.8
78708;SHT31;68037;51.978;5.650;2023-04-15T03:59:32;11.6;53.2
78708;SHT31;68037;51.978;5.650;2023-04-15T04:02:05;11.6;53.3
78708;SHT31;68037;51.978;5.650;2023-04-15T04:04:35;11.5;53.8
78708;SHT31;68037;51.978;5.650;2023-04-15T04:07:04;11.5;53.7
78708;SHT31;68037;51.978;5.650;2023-04-15T04:09:34;11.5;54.0
78708;SHT31;68037;51.978;5.650;2023-04-15T04:12:05;11.4;54.2
78708;SHT31;68037;51.978;5.650;2023-04-15T04:14:35;11.4;54.0
78708;SHT31;68037;51.978;5.650;2023-04-15T04:17:05;11.4;54.5
78708;SHT31;68037;51.978;5.650;2023-04-15T04:19:34;11.3;54.7
78708;SHT31;68037;51.978;5.650;2023-04-15T04:22:04;11.3;54.5
78708;SHT31;68037;51.978;5.650;2023-04-15T04:24:33;11.3;55.1
78708;SHT31;68037;51.978;5.650;2023-04-15T04:27:04;11.2;55.1
78708;SHT31;68037;51.978;5.650;2023-04-15T04:29:33;11.3;55.0
78708;SHT31;68037;51.978;5.650;2023-04-15T04:32:03;11.3;54.8
78708;SHT31;68037;51.978;5.650;2023-04-15T04:34:33;11.3;54.6
78708;SHT31;68037;51.978;5.650;2023-04-15T04:37:02;11.3;54.9
78708;SHT31;68037;51.978;5.650;2023-04-15T04:39:33;11.2;55.3
78708;SHT31;68037;51.978;5.650;2023-04-15T04:42:02;11.2;55.3
78708;SHT31;68037;51.978;5.650;2023-04-15T04:44:32;11.2;55.3
78708;SHT31;68037;51.978;5.650;2023-04-15T04:47:01;11.2;55.4
78708;SHT31;68037;51.978;5.650;2023-04-15T04:49:31;11.2;55.5
78708;SHT31;68037;51.978;5.650;2023-04-15T04:52:00;11.1;55.7
78708;SHT31;68037;51.978;5.650;2023-04-15T04:54:30;11.1;55.8
78708;SHT31;68037;51.978;5.650;2023-04-15T04:56:59;11.1;55.9
78708;SHT31;68037;51.978;5.650;2023-04-15T04:59:29;11.0;55.8
78708;SHT31;68037;51.978;5.650;2023-04-15T05:01:59;11.0;56.3
78708;SHT31;68037;51.978;5.650;2023-04-15T05:04:31;11.0;56.3
78708;SHT31;68037;51.978;5.650;2023-04-15T05:07:01;11.0;56.5
78708;SHT31;68037;51.978;5.650;2023-04-15T05:09:31;10.9;56.4
78708;SHT31;68037;51.978;5.650;2023-04-15T05:12:02;10.9;56.7
78708;SHT31;68037;51.978;5.650;2023-04-15T05:14:32;10.9;56.6
78708;SHT31;68037;51.978;5.650;2023-04-15T05:17:02;10.9;57.2
78708;SHT31;68037;51.978;5.650;2023-04-15T05:19:33;10.8;57.0
78708;SHT31;68037;51.978;5.650;2023-04-15T05:22:03;10.8;57.0
78708;SHT31;68037;51.978;5.650;2023-04-15T05:24:33;10.8;57.4
78708;SHT31;68037;51.978;5.650;2023-04-15T05:27:03;10.8;57.6
78708;SHT31;68037;51.978;5.650;2023-04-15T05:29:34;10.7;57.7
78708;SHT31;68037;51.978;5.650;2023-04-15T05:32:04;10.7;58.0
78708;SHT31;68037;51.978;5.650;2023-04-15T05:34:33;10.7;58.0
78708;SHT31;68037;51.978;5.650;2023-04-15T05:37:03;10.7;58.2
78708;SHT31;68037;51.978;5.650;2023-04-15T05:39:33;10.6;58.3
78708;SHT31;68037;51.978;5.650;2023-04-15T05:42:02;10.6;58.3
78708;SHT31;68037;51.978;5.650;2023-04-15T05:44:32;10.6;58.7
78708;SHT31;68037;51.978;5.650;2023-04-15T05:47:02;10.6;59.1
78708;SHT31;68037;51.978;5.650;2023-04-15T05:49:33;10.6;59.2
78708;SHT31;68037;51.978;5.650;2023-04-15T05:52:03;10.6;59.3
78708;SHT31;68037;51.978;5.650;2023-04-15T05:54:33;10.6;59.5
78708;SHT31;68037;51.978;5.650;2023-04-15T05:57:03;10.6;59.8
78708;SHT31;68037;51.978;5.650;2023-04-15T05:59:34;10.6;59.8
78708;SHT31;68037;51.978;5.650;2023-04-15T06:02:05;10.6;60.2
78708;SHT31;68037;51.978;5.650;2023-04-15T06:04:35;10.6;60.2
78708;SHT31;68037;51.978;5.650;2023-04-15T06:07:05;10.6;60.7
78708;SHT31;68037;51.978;5.650;2023-04-15T06:09:35;10.6;61.0
78708;SHT31;68037;51.978;5.650;2023-04-15T06:12:04;10.7;60.5
78708;SHT31;68037;51.978;5.650;2023-04-15T06:14:38;10.8;60.4
78708;SHT31;68037;51.978;5.650;2023-04-15T06:17:08;10.8;60.4
78708;SHT31;68037;51.978;5.650;2023-04-15T06:19:40;10.8;60.5
78708;SHT31;68037;51.978;5.650;2023-04-15T06:22:11;10.9;60.8
78708;SHT31;68037;51.978;5.650;2023-04-15T06:24:40;10.9;60.8
78708;SHT31;68037;51.978;5.650;2023-04-15T06:27:10;10.9;60.8
78708;SHT31;68037;51.978;5.650;2023-04-15T06:29:39;10.9;60.7
78708;SHT31;68037;51.978;5.650;2023-04-15T06:32:09;10.9;60.9
78708;SHT31;68037;51.978;5.650;2023-04-15T06:34:39;11.0;60.9
78708;SHT31;68037;51.978;5.650;2023-04-15T06:37:08;11.0;61.1
78708;SHT31;68037;51.978;5.650;2023-04-15T06:39:42;11.0;61.4
78708;SHT31;68037;51.978;5.650;2023-04-15T06:42:12;11.0;61.3
78708;SHT31;68037;51.978;5.650;2023-04-15T06:44:42;11.1;61.3
78708;SHT31;68037;51.978;5.650;2023-04-15T06:47:12;11.1;61.2
78708;SHT31;68037;51.978;5.650;2023-04-15T06:49:42;11.1;61.5
78708;SHT31;68037;51.978;5.650;2023-04-15T06:52:11;11.1;61.3
78708;SHT31;68037;51.978;5.650;2023-04-15T06:54:43;11.1;61.6
78708;SHT31;68037;51.978;5.650;2023-04-15T06:57:12;11.2;61.5
78708;SHT31;68037;51.978;5.650;2023-04-15T06:59:42;11.2;61.3
78708;SHT31;68037;51.978;5.650;2023-04-15T07:02:12;11.2;61.8
78708;SHT31;68037;51.978;5.650;2023-04-15T07:04:42;11.3;62.0
78708;SHT31;68037;51.978;5.650;2023-04-15T07:07:12;11.3;61.4
78708;SHT31;68037;51.978;5.650;2023-04-15T07:09:41;11.4;61.7
78708;SHT31;68037;51.978;5.650;2023-04-15T07:12:13;11.6;61.4
78708;SHT31;68037;51.978;5.650;2023-04-15T07:14:42;11.8;60.3
78708;SHT31;68037;51.978;5.650;2023-04-15T07:17:11;11.9;59.5
78708;SHT31;68037;51.978;5.650;2023-04-15T07:19:42;12.0;59.1
78708;SHT31;68037;51.978;5.650;2023-04-15T07:22:12;12.1;58.3
78708;SHT31;68037;51.978;5.650;2023-04-15T07:24:42;12.2;58.3
78708;SHT31;68037;51.978;5.650;2023-04-15T07:27:12;12.4;57.2
78708;SHT31;68037;51.978;5.650;2023-04-15T07:29:45;12.5;56.6
78708;SHT31;68037;51.978;5.650;2023-04-15T07:32:14;12.5;56.4
78708;SHT31;68037;51.978;5.650;2023-04-15T07:34:45;12.6;55.7
78708;SHT31;68037;51.978;5.650;2023-04-15T07:37:14;12.6;54.9
78708;SHT31;68037;51.978;5.650;2023-04-15T07:39:45;12.6;54.4
78708;SHT31;68037;51.978;5.650;2023-04-15T07:42:15;12.6;54.4
78708;SHT31;68037;51.978;5.650;2023-04-15T07:44:45;12.6;54.4
78708;SHT31;68037;51.978;5.650;2023-04-15T07:47:18;12.5;54.5
78708;SHT31;68037;51.978;5.650;2023-04-15T07:49:48;12.6;54.0
78708;SHT31;68037;51.978;5.650;2023-04-15T07:52:17;12.6;54.0
78708;SHT31;68037;51.978;5.650;2023-04-15T07:54:47;12.6;54.2
78708;SHT31;68037;51.978;5.650;2023-04-15T07:57:17;12.6;54.3
78708;SHT31;68037;51.978;5.650;2023-04-15T07:59:47;12.6;54.9
78708;SHT31;68037;51.978;5.650;2023-04-15T08:02:16;12.6;53.5
78708;SHT31;68037;51.978;5.650;2023-04-15T08:04:46;12.6;53.9
78708;SHT31;68037;51.978;5.650;2023-04-15T08:07:15;12.6;54.2
78708;SHT31;68037;51.978;5.650;2023-04-15T08:09:45;12.6;53.9
78708;SHT31;68037;51.978;5.650;2023-04-15T08:12:14;12.6;54.5
78708;SHT31;68037;51.978;5.650;2023-04-15T08:14:44;12.6;54.8
78708;SHT31;68037;51.978;5.650;2023-04-15T08:17:14;12.6;53.5
78708;SHT31;68037;51.978;5.650;2023-04-15T08:19:44;12.6;53.8
78708;SHT31;68037;51.978;5.650;2023-04-15T08:22:14;12.6;54.5
78708;SHT31;68037;51.978;5.650;2023-04-15T08:24:46;12.6;54.5
78708;SHT31;68037;51.978;5.650;2023-04-15T08:27:16;12.6;54.5
78708;SHT31;68037;51.978;5.650;2023-04-15T08:29:45;12.6;54.3
78708;SHT31;68037;51.978;5.650;2023-04-15T08:32:15;12.6;54.1
78708;SHT31;68037;51.978;5.650;2023-04-15T08:34:45;12.6;54.2
78708;SHT31;68037;51.978;5.650;2023-04-15T08:37:14;12.6;54.7
78708;SHT31;68037;51.978;5.650;2023-04-15T08:39:44;12.6;54.2
78708;SHT31;68037;51.978;5.650;2023-04-15T08:42:16;12.7;53.8
78708;SHT31;68037;51.978;5.650;2023-04-15T08:44:48;12.7;54.8
78708;SHT31;68037;51.978;5.650;2023-04-15T08:47:20;12.8;55.5
78708;SHT31;68037;51.978;5.650;2023-04-15T08:49:51;12.8;54.9
78708;SHT31;68037;51.978;5.650;2023-04-15T08:52:24;12.9;54.3
78708;SHT31;68037;51.978;5.650;2023-04-15T08:54:56;12.9;54.2
78708;SHT31;68037;51.978;5.650;2023-04-15T08:57:28;13.0;53.4
78708;SHT31;68037;51.978;5.650;2023-04-15T08:59:58;13.1;53.2
78708;SHT31;68037;51.978;5.650;2023-04-15T09:02:27;13.1;53.8
78708;SHT31;68037;51.978;5.650;2023-04-15T09:04:57;13.1;53.7
78708;SHT31;68037;51.978;5.650;2023-04-15T09:07:27;13.2;53.9
78708;SHT31;68037;51.978;5.650;2023-04-15T09:09:57;13.2;53.2
78708;SHT31;68037;51.978;5.650;2023-04-15T09:12:28;13.3;53.8
78708;SHT31;68037;51.978;5.650;2023-04-15T09:14:58;13.4;54.0
78708;SHT31;68037;51.978;5.650;2023-04-15T09:17:32;13.4;53.4
78708;SHT31;68037;51.978;5.650;2023-04-15T09:20:13;13.5;52.9
78708;SHT31;68037;51.978;5.650;2023-04-15T09:22:46;13.5;53.5
78708;SHT31;68037;51.978;5.650;2023-04-15T09:25:32;13.6;53.3
78708;SHT31;68037;51.978;5.650;2023-04-15T09:28:03;13.7;53.6
78708;SHT31;68037;51.978;5.650;2023-04-15T09:30:32;13.8;52.6
78708;SHT31;68037;51.978;5.650;2023-04-15T09:33:04;13.8;52.3
78708;SHT31;68037;51.978;5.650;2023-04-15T09:35:34;13.9;52.9
78708;SHT31;68037;51.978;5.650;2023-04-15T09:38:06;13.9;52.6
78708;SHT31;68037;51.978;5.650;2023-04-15T09:40:37;13.9;53.4
78708;SHT31;68037;51.978;5.650;2023-04-15T09:43:09;14.0;52.5
78708;SHT31;68037;51.978;5.650;2023-04-15T09:45:50;14.1;50.6
78708;SHT31;68037;51.978;5.650;2023-04-15T09:48:22;14.1;49.8
78708;SHT31;68037;51.978;5.650;2023-04-15T09:50:57;14.2;49.7
78708;SHT31;68037;51.978;5.650;2023-04-15T09:53:28;14.3;49.7
78708;SHT31;68037;51.978;5.650;2023-04-15T09:56:00;14.3;50.1
78708;SHT31;68037;51.978;5.650;2023-04-15T09:58:32;14.4;50.5
78708;SHT31;68037;51.978;5.650;2023-04-15T10:01:04;14.5;49.7
78708;SHT31;68037;51.978;5.650;2023-04-15T10:03:35;14.5;49.7
78708;SHT31;68037;51.978;5.650;2023-04-15T10:06:05;14.6;49.4
78708;SHT31;68037;51.978;5.650;2023-04-15T10:08:35;14.6;48.9
78708;SHT31;68037;51.978;5.650;2023-04-15T10:11:05;14.7;48.8
78708;SHT31;68037;51.978;5.650;2023-04-15T10:13:36;14.8;48.9
78708;SHT31;68037;51.978;5.650;2023-04-15T10:16:10;14.8;49.0
78708;SHT31;68037;51.978;5.650;2023-04-15T10:18:43;14.8;49.1
78708;SHT31;68037;51.978;5.650;2023-04-15T10:21:15;14.9;49.3
78708;SHT31;68037;51.978;5.650;2023-04-15T10:23:46;14.9;49.2
78708;SHT31;68037;51.978;5.650;2023-04-15T10:26:16;15.0;48.7
78708;SHT31;68037;51.978;5.650;2023-04-15T10:28:46;15.0;48.8
78708;SHT31;68037;51.978;5.650;2023-04-15T10:31:17;15.1;48.7
78708;SHT31;68037;51.978;5.650;2023-04-15T10:33:47;15.1;48.9
78708;SHT31;68037;51.978;5.650;2023-04-15T10:36:18;15.1;48.9
78708;SHT31;68037;51.978;5.650;2023-04-15T10:38:48;15.1;48.5
78708;SHT31;68037;51.978;5.650;2023-04-15T10:41:21;15.2;48.5
78708;SHT31;68037;51.978;5.650;2023-04-15T10:43:52;15.2;48.5
78708;SHT31;68037;51.978;5.650;2023-04-15T10:46:33;15.2;48.0
78708;SHT31;68037;51.978;5.650;2023-04-15T10:49:09;15.2;48.7
78708;SHT31;68037;51.978;5.650;2023-04-15T10:51:40;15.2;48.4
78708;SHT31;68037;51.978;5.650;2023-04-15T10:54:13;15.3;49.0
78708;SHT31;68037;51.978;5.650;2023-04-15T10:56:44;15.3;49.0
78708;SHT31;68037;51.978;5.650;2023-04-15T10:59:17;15.3;48.5
78708;SHT31;68037;51.978;5.650;2023-04-15T11:01:56;15.4;48.6
78708;SHT31;68037;51.978;5.650;2023-04-15T11:04:55;15.5;49.2
78708;SHT31;68037;51.978;5.650;2023-04-15T11:07:37;15.6;50.2
78708;SHT31;68037;51.978;5.650;2023-04-15T11:14:45;16.0;47.2
78708;SHT31;68037;51.978;5.650;2023-04-15T11:17:27;16.1;46.6
78708;SHT31;68037;51.978;5.650;2023-04-15T11:20:00;16.2;46.3
78708;SHT31;68037;51.978;5.650;2023-04-15T11:22:31;16.2;46.4
78708;SHT31;68037;51.978;5.650;2023-04-15T11:25:01;16.2;46.3
78708;SHT31;68037;51.978;5.650;2023-04-15T11:27:30;16.2;45.2
78708;SHT31;68037;51.978;5.650;2023-04-15T11:30:00;16.3;46.4
78708;SHT31;68037;51.978;5.650;2023-04-15T11:32:29;16.3;46.4
78708;SHT31;68037;51.978;5.650;2023-04-15T11:34:59;16.3;46.2
78708;SHT31;68037;51.978;5.650;2023-04-15T11:37:31;16.4;46.3
78708;SHT31;68037;51.978;5.650;2023-04-15T11:40:03;16.4;46.1
78708;SHT31;68037;51.978;5.650;2023-04-15T11:42:33;16.5;46.5
78708;SHT31;68037;51.978;5.650;2023-04-15T11:45:10;16.5;45.5
78708;SHT31;68037;51.978;5.650;2023-04-15T11:47:41;16.5;44.2
78708;SHT31;68037;51.978;5.650;2023-04-15T11:50:16;16.5;44.6
78708;SHT31;68037;51.978;5.650;2023-04-15T11:52:56;16.6;44.7
78708;SHT31;68037;51.978;5.650;2023-04-15T11:55:28;16.6;44.9
78708;SHT31;68037;51.978;5.650;2023-04-15T11:58:07;16.6;45.0
78708;SHT31;68037;51.978;5.650;2023-04-15T12:00:39;16.7;44.7
78708;SHT31;68037;51.978;5.650;2023-04-15T12:03:13;16.7;44.4
78708;SHT31;68037;51.978;5.650;2023-04-15T12:06:03;16.7;44.4
78708;SHT31;68037;51.978;5.650;2023-04-15T12:08:55;16.8;44.0
78708;SHT31;68037;51.978;5.650;2023-04-15T12:11:31;16.8;44.3
78708;SHT31;68037;51.978;5.650;2023-04-15T12:14:03;16.8;44.0
78708;SHT31;68037;51.978;5.650;2023-04-15T12:16:34;16.8;43.6
78708;SHT31;68037;51.978;5.650;2023-04-15T12:19:07;16.8;43.6
78708;SHT31;68037;51.978;5.650;2023-04-15T12:21:39;16.8;43.4
78708;SHT31;68037;51.978;5.650;2023-04-15T12:24:10;16.8;43.2
78708;SHT31;68037;51.978;5.650;2023-04-15T12:26:45;16.8;43.6
78708;SHT31;68037;51.978;5.650;2023-04-15T12:29:16;16.8;44.5
78708;SHT31;68037;51.978;5.650;2023-04-15T12:31:52;16.8;44.4
78708;SHT31;68037;51.978;5.650;2023-04-15T12:34:30;16.8;45.0
78708;SHT31;68037;51.978;5.650;2023-04-15T12:37:03;16.8;44.2
78708;SHT31;68037;51.978;5.650;2023-04-15T12:39:35;16.8;45.0
78708;SHT31;68037;51.978;5.650;2023-04-15T12:42:06;16.8;44.7
78708;SHT31;68037;51.978;5.650;2023-04-15T12:44:38;16.8;44.6
78708;SHT31;68037;51.978;5.650;2023-04-15T12:47:09;16.9;44.7
78708;SHT31;68037;51.978;5.650;2023-04-15T12:49:39;16.9;44.4
78708;SHT31;68037;51.978;5.650;2023-04-15T12:52:09;16.9;43.6
78708;SHT31;68037;51.978;5.650;2023-04-15T12:54:39;16.9;43.7
78708;SHT31;68037;51.978;5.650;2023-04-15T12:57:09;16.9;43.6
78708;SHT31;68037;51.978;5.650;2023-04-15T12:59:38;16.9;43.0
78708;SHT31;68037;51.978;5.650;2023-04-15T13:02:08;16.9;43.3
78708;SHT31;68037;51.978;5.650;2023-04-15T13:04:41;16.9;43.9
78708;SHT31;68037;51.978;5.650;2023-04-15T13:07:10;16.9;43.7
78708;SHT31;68037;51.978;5.650;2023-04-15T13:09:42;16.9;43.7
78708;SHT31;68037;51.978;5.650;2023-04-15T13:12:11;16.9;44.2
78708;SHT31;68037;51.978;5.650;2023-04-15T13:14:41;16.9;43.6
78708;SHT31;68037;51.978;5.650;2023-04-15T13:17:11;16.9;42.9
78708;SHT31;68037;51.978;5.650;2023-04-15T13:19:40;16.8;43.6
78708;SHT31;68037;51.978;5.650;2023-04-15T13:22:10;16.8;43.7
78708;SHT31;68037;51.978;5.650;2023-04-15T13:24:41;16.8;44.8
78708;SHT31;68037;51.978;5.650;2023-04-15T13:27:10;16.8;44.3
78708;SHT31;68037;51.978;5.650;2023-04-15T13:29:43;16.7;44.0
78708;SHT31;68037;51.978;5.650;2023-04-15T13:32:12;16.7;44.5
78708;SHT31;68037;51.978;5.650;2023-04-15T13:34:42;16.7;44.9
78708;SHT31;68037;51.978;5.650;2023-04-15T13:37:11;16.7;45.0
78708;SHT31;68037;51.978;5.650;2023-04-15T13:39:41;16.7;45.6
78708;SHT31;68037;51.978;5.650;2023-04-15T13:42:10;16.7;46.5
78708;SHT31;68037;51.978;5.650;2023-04-15T13:44:41;16.7;46.3
78708;SHT31;68037;51.978;5.650;2023-04-15T13:47:11;16.7;45.3
78708;SHT31;68037;51.978;5.650;2023-04-15T13:49:42;16.8;45.7
78708;SHT31;68037;51.978;5.650;2023-04-15T13:52:12;16.8;45.0
78708;SHT31;68037;51.978;5.650;2023-04-15T13:54:43;16.8;45.1
78708;SHT31;68037;51.978;5.650;2023-04-15T13:57:14;16.8;45.1
78708;SHT31;68037;51.978;5.650;2023-04-15T13:59:43;16.9;45.3
78708;SHT31;68037;51.978;5.650;2023-04-15T14:02:15;16.9;45.7
78708;SHT31;68037;51.978;5.650;2023-04-15T14:04:46;16.9;44.8
78708;SHT31;68037;51.978;5.650;2023-04-15T14:07:15;17.0;44.9
78708;SHT31;68037;51.978;5.650;2023-04-15T14:09:45;17.0;45.0
78708;SHT31;68037;51.978;5.650;2023-04-15T14:12:14;17.0;44.7
78708;SHT31;68037;51.978;5.650;2023-04-15T14:14:44;17.0;45.4
78708;SHT31;68037;51.978;5.650;2023-04-15T14:17:14;17.0;45.3
78708;SHT31;68037;51.978;5.650;2023-04-15T14:19:44;17.0;45.4
78708;SHT31;68037;51.978;5.650;2023-04-15T14:22:13;16.9;45.7
78708;SHT31;68037;51.978;5.650;2023-04-15T14:24:48;16.9;46.1
78708;SHT31;68037;51.978;5.650;2023-04-15T14:27:22;16.9;46.0
78708;SHT31;68037;51.978;5.650;2023-04-15T14:29:52;16.9;45.0
78708;SHT31;68037;51.978;5.650;2023-04-15T14:32:24;16.9;45.0
78708;SHT31;68037;51.978;5.650;2023-04-15T14:34:54;16.8;45.5
78708;SHT31;68037;51.978;5.650;2023-04-15T14:37:23;16.8;45.5
78708;SHT31;68037;51.978;5.650;2023-04-15T14:39:53;16.7;45.5
78708;SHT31;68037;51.978;5.650;2023-04-15T14:42:23;16.7;45.6
78708;SHT31;68037;51.978;5.650;2023-04-15T14:44:52;16.6;46.0
78708;SHT31;68037;51.978;5.650;2023-04-15T14:47:22;16.5;46.2
78708;SHT31;68037;51.978;5.650;2023-04-15T14:49:51;16.4;47.0
78708;SHT31;68037;51.978;5.650;2023-04-15T14:52:21;16.4;47.4
78708;SHT31;68037;51.978;5.650;2023-04-15T14:54:50;16.3;47.2
78708;SHT31;68037;51.978;5.650;2023-04-15T14:57:20;16.3;46.7
78708;SHT31;68037;51.978;5.650;2023-04-15T14:59:50;16.2;46.7
78708;SHT31;68037;51.978;5.650;2023-04-15T15:02:23;16.2;46.9
78708;SHT31;68037;51.978;5.650;2023-04-15T15:04:53;16.1;46.9
78708;SHT31;68037;51.978;5.650;2023-04-15T15:07:23;16.0;47.2
78708;SHT31;68037;51.978;5.650;2023-04-15T15:09:52;16.0;47.5
78708;SHT31;68037;51.978;5.650;2023-04-15T15:12:22;15.9;47.8
78708;SHT31;68037;51.978;5.650;2023-04-15T15:14:54;15.8;48.0
78708;SHT31;68037;51.978;5.650;2023-04-15T15:17:24;15.8;48.7
78708;SHT31;68037;51.978;5.650;2023-04-15T15:19:54;15.7;49.0
78708;SHT31;68037;51.978;5.650;2023-04-15T15:22:23;15.7;49.1
78708;SHT31;68037;51.978;5.650;2023-04-15T15:24:54;15.7;49.4
78708;SHT31;68037;51.978;5.650;2023-04-15T15:27:25;15.7;49.8
78708;SHT31;68037;51.978;5.650;2023-04-15T15:29:55;15.7;49.7
78708;SHT31;68037;51.978;5.650;2023-04-15T15:32:25;15.7;49.1
78708;SHT31;68037;51.978;5.650;2023-04-15T15:34:54;15.6;48.9
78708;SHT31;68037;51.978;5.650;2023-04-15T15:37:24;15.6;48.5
78708;SHT31;68037;51.978;5.650;2023-04-15T15:39:53;15.6;48.4
78708;SHT31;68037;51.978;5.650;2023-04-15T15:42:24;15.5;48.8
78708;SHT31;68037;51.978;5.650;2023-04-15T15:44:53;15.5;49.4
78708;SHT31;68037;51.978;5.650;2023-04-15T15:47:25;15.5;49.2
78708;SHT31;68037;51.978;5.650;2023-04-15T15:49:55;15.4;49.4
78708;SHT31;68037;51.978;5.650;2023-04-15T15:52:25;15.4;49.7
78708;SHT31;68037;51.978;5.650;2023-04-15T15:54:54;15.4;49.3
78708;SHT31;68037;51.978;5.650;2023-04-15T15:57:24;15.4;49.4
78708;SHT31;68037;51.978;5.650;2023-04-15T15:59:53;15.3;49.0
78708;SHT31;68037;51.978;5.650;2023-04-15T16:02:23;15.3;49.4
78708;SHT31;68037;51.978;5.650;2023-04-15T16:04:52;15.3;49.7
78708;SHT31;68037;51.978;5.650;2023-04-15T16:07:22;15.3;49.5
78708;SHT31;68037;51.978;5.650;2023-04-15T16:09:51;15.3;49.5
78708;SHT31;68037;51.978;5.650;2023-04-15T16:12:21;15.2;49.2
78708;SHT31;68037;51.978;5.650;2023-04-15T16:14:51;15.2;49.5
78708;SHT31;68037;51.978;5.650;2023-04-15T16:17:20;15.2;49.9
78708;SHT31;68037;51.978;5.650;2023-04-15T16:19:50;15.1;50.2
78708;SHT31;68037;51.978;5.650;2023-04-15T16:22:21;15.1;50.2
78708;SHT31;68037;51.978;5.650;2023-04-15T16:24:50;15.1;49.8
78708;SHT31;68037;51.978;5.650;2023-04-15T16:27:21;15.1;50.0
78708;SHT31;68037;51.978;5.650;2023-04-15T16:29:50;15.0;50.2